sensor_id;sensor_type;location;lat;lon;timestamp;P1;durP1;ratioP1;P2;durP2;ratioP2
10847;SDS011;5477;48.806;9.154;2024-02-21T00:02:23;5.97;;;2.80;;
10847;SDS011;5477;48.806;9.154;2024-02-21T00:04:51;7.23;;;3.30;;
10847;SDS011;5477;48.806;9.154;2024-02-21T00:07:20;9.83;;;3.57;;
10847;SDS011;5477;48.806;9.154;2024-02-21T00:09:49;7.17;;;3.10;;
10847;SDS011;5477;48.806;9.154;2024-02-21T00:12:17;11.23;;;3.40;;
10847;SDS011;5477;48.806;9.154;2024-02-21T00:14:45;7.87;;;3.47;;
10847;SDS011;5477;48.806;9.154;2024-02-21T00:17:13;7.73;;;3.10;;
10847;SDS011;5477;48.806;9.154;2024-02-21T00:19:41;7.03;;;3.07;;
10847;SDS011;5477;48.806;9.154;2024-02-21T00:22:09;7.67;;;3.33;;
10847;SDS011;5477;48.806;9.154;2024-02-21T00:24:38;6.47;;;3.07;;
10847;SDS011;5477;48.806;9.154;2024-02-21T00:27:06;4.53;;;2.67;;
10847;SDS011;5477;48.806;9.154;2024-02-21T00:29:34;7.63;;;2.87;;
10847;SDS011;5477;48.806;9.154;2024-02-21T00:32:03;8.50;;;3.30;;
10847;SDS011;5477;48.806;9.154;2024-02-21T00:34:31;5.90;;;2.80;;
10847;SDS011;5477;48.806;9.154;2024-02-21T00:37:00;6.47;;;3.30;;
10847;SDS011;5477;48.806;9.154;2024-02-21T00:39:28;7.83;;;2.77;;
10847;SDS011;5477;48.806;9.154;2024-02-21T00:41:57;7.37;;;2.83;;
10847;SDS011;5477;48.806;9.154;2024-02-21T00:44:25;9.43;;;3.30;;
10847;SDS011;5477;48.806;9.154;2024-02-21T00:46:53;8.80;;;3.27;;
10847;SDS011;5477;48.806;9.154;2024-02-21T00:49:22;7.93;;;2.93;;
10847;SDS011;5477;48.806;9.154;2024-02-21T00:51:50;7.07;;;3.10;;
10847;SDS011;5477;48.806;9.154;2024-02-21T00:54:18;9.97;;;3.27;;
10847;SDS011;5477;48.806;9.154;2024-02-21T00:56:46;8.27;;;3.00;;
10847;SDS011;5477;48.806;9.154;2024-02-21T00:59:15;9.00;;;2.93;;
10847;SDS011;5477;48.806;9.154;2024-02-21T01:01:43;8.20;;;2.83;;
10847;SDS011;5477;48.806;9.154;2024-02-21T01:04:12;7.57;;;3.07;;
10847;SDS011;5477;48.806;9.154;2024-02-21T01:06:40;9.53;;;3.40;;
10847;SDS011;5477;48.806;9.154;2024-02-21T01:09:10;5.77;;;2.77;;
10847;SDS011;5477;48.806;9.154;2024-02-21T01:11:38;8.53;;;2.83;;
10847;SDS011;5477;48.806;9.154;2024-02-21T01:14:06;9.23;;;3.10;;
10847;SDS011;5477;48.806;9.154;2024-02-21T01:16:35;6.27;;;2.80;;
10847;SDS011;5477;48.806;9.154;2024-02-21T01:19:04;10.47;;;3.10;;
10847;SDS011;5477;48.806;9.154;2024-02-21T01:21:32;8.23;;;3.07;;
10847;SDS011;5477;48.806;9.154;2024-02-21T01:24:00;6.87;;;2.97;;
10847;SDS011;5477;48.806;9.154;2024-02-21T01:26:28;10.23;;;2.70;;
10847;SDS011;5477;48.806;9.154;2024-02-21T01:28:56;6.80;;;3.03;;
10847;SDS011;5477;48.806;9.154;2024-02-21T01:31:25;7.17;;;2.80;;
10847;SDS011;5477;48.806;9.154;2024-02-21T01:33:54;8.80;;;2.80;;
10847;SDS011;5477;48.806;9.154;2024-02-21T01:36:23;9.27;;;2.73;;
10847;SDS011;5477;48.806;9.154;2024-02-21T01:38:51;8.40;;;3.10;;
10847;SDS011;5477;48.806;9.154;2024-02-21T01:41:19;6.30;;;2.93;;
10847;SDS011;5477;48.806;9.154;2024-02-21T01:43:47;7.27;;;3.20;;
10847;SDS011;5477;48.806;9.154;2024-02-21T01:46:15;9.33;;;2.83;;
10847;SDS011;5477;48.806;9.154;2024-02-21T01:48:43;6.83;;;2.90;;
10847;SDS011;5477;48.806;9.154;2024-02-21T01:51:14;7.83;;;2.57;;
10847;SDS011;5477;48.806;9.154;2024-02-21T01:53:43;8.23;;;2.90;;
10847;SDS011;5477;48.806;9.154;2024-02-21T01:56:12;7.03;;;2.97;;
10847;SDS011;5477;48.806;9.154;2024-02-21T01:58:42;6.27;;;2.70;;
10847;SDS011;5477;48.806;9.154;2024-02-21T02:01:10;6.83;;;2.70;;
10847;SDS011;5477;48.806;9.154;2024-02-21T02:03:40;9.13;;;3.30;;
10847;SDS011;5477;48.806;9.154;2024-02-21T02:06:08;6.60;;;2.47;;
10847;SDS011;5477;48.806;9.154;2024-02-21T02:08:38;9.30;;;2.80;;
10847;SDS011;5477;48.806;9.154;2024-02-21T02:11:06;6.53;;;2.67;;
10847;SDS011;5477;48.806;9.154;2024-02-21T02:13:34;7.37;;;2.83;;
10847;SDS011;5477;48.806;9.154;2024-02-21T02:16:03;10.60;;;2.87;;
10847;SDS011;5477;48.806;9.154;2024-02-21T02:18:31;5.73;;;2.47;;
10847;SDS011;5477;48.806;9.154;2024-02-21T02:20:59;10.10;;;4.23;;
10847;SDS011;5477;48.806;9.154;2024-02-21T02:23:29;6.60;;;2.50;;
10847;SDS011;5477;48.806;9.154;2024-02-21T02:25:58;6.57;;;2.73;;
10847;SDS011;5477;48.806;9.154;2024-02-21T02:28:27;8.57;;;2.73;;
10847;SDS011;5477;48.806;9.154;2024-02-21T02:30:55;6.00;;;2.40;;
10847;SDS011;5477;48.806;9.154;2024-02-21T02:33:23;8.37;;;2.67;;
10847;SDS011;5477;48.806;9.154;2024-02-21T02:35:52;6.30;;;2.70;;
10847;SDS011;5477;48.806;9.154;2024-02-21T02:38:20;6.90;;;2.53;;
10847;SDS011;5477;48.806;9.154;2024-02-21T02:40:49;5.20;;;2.53;;
10847;SDS011;5477;48.806;9.154;2024-02-21T02:43:17;6.20;;;2.37;;
10847;SDS011;5477;48.806;9.154;2024-02-21T02:45:45;7.03;;;2.27;;
10847;SDS011;5477;48.806;9.154;2024-02-21T02:48:13;5.80;;;2.63;;
10847;SDS011;5477;48.806;9.154;2024-02-21T02:50:41;10.53;;;3.27;;
10847;SDS011;5477;48.806;9.154;2024-02-21T02:53:09;8.47;;;2.60;;
10847;SDS011;5477;48.806;9.154;2024-02-21T02:55:37;7.60;;;2.53;;
10847;SDS011;5477;48.806;9.154;2024-02-21T02:58:07;6.83;;;3.10;;
10847;SDS011;5477;48.806;9.154;2024-02-21T03:00:35;7.60;;;2.70;;
10847;SDS011;5477;48.806;9.154;2024-02-21T03:03:03;9.80;;;3.07;;
10847;SDS011;5477;48.806;9.154;2024-02-21T03:05:31;6.27;;;2.53;;
10847;SDS011;5477;48.806;9.154;2024-02-21T03:08:00;8.03;;;2.57;;
10847;SDS011;5477;48.806;9.154;2024-02-21T03:10:28;6.87;;;2.93;;
10847;SDS011;5477;48.806;9.154;2024-02-21T03:12:56;6.90;;;3.00;;
10847;SDS011;5477;48.806;9.154;2024-02-21T03:15:26;6.13;;;2.70;;
10847;SDS011;5477;48.806;9.154;2024-02-21T03:17:54;8.63;;;3.33;;
10847;SDS011;5477;48.806;9.154;2024-02-21T03:20:22;6.73;;;2.67;;
10847;SDS011;5477;48.806;9.154;2024-02-21T03:22:50;9.00;;;2.67;;
10847;SDS011;5477;48.806;9.154;2024-02-21T03:25:18;4.37;;;2.13;;
10847;SDS011;5477;48.806;9.154;2024-02-21T03:27:46;4.70;;;2.30;;
10847;SDS011;5477;48.806;9.154;2024-02-21T03:30:14;6.50;;;3.07;;
10847;SDS011;5477;48.806;9.154;2024-02-21T03:32:44;5.40;;;2.50;;
10847;SDS011;5477;48.806;9.154;2024-02-21T03:35:12;7.13;;;2.80;;
10847;SDS011;5477;48.806;9.154;2024-02-21T03:37:40;6.40;;;2.50;;
10847;SDS011;5477;48.806;9.154;2024-02-21T03:40:08;7.53;;;2.70;;
10847;SDS011;5477;48.806;9.154;2024-02-21T03:42:37;8.23;;;2.40;;
10847;SDS011;5477;48.806;9.154;2024-02-21T03:45:05;7.33;;;2.67;;
10847;SDS011;5477;48.806;9.154;2024-02-21T03:47:34;7.43;;;2.50;;
10847;SDS011;5477;48.806;9.154;2024-02-21T03:50:04;9.00;;;2.40;;
10847;SDS011;5477;48.806;9.154;2024-02-21T03:52:33;9.30;;;2.47;;
10847;SDS011;5477;48.806;9.154;2024-02-21T03:55:01;8.33;;;2.60;;
10847;SDS011;5477;48.806;9.154;2024-02-21T03:57:29;10.43;;;2.97;;
10847;SDS011;5477;48.806;9.154;2024-02-21T03:59:57;6.80;;;2.30;;
10847;SDS011;5477;48.806;9.154;2024-02-21T04:02:25;7.20;;;2.80;;
10847;SDS011;5477;48.806;9.154;2024-02-21T04:04:53;7.80;;;2.87;;
10847;SDS011;5477;48.806;9.154;2024-02-21T04:07:22;6.73;;;2.90;;
10847;SDS011;5477;48.806;9.154;2024-02-21T04:09:50;4.23;;;2.40;;
10847;SDS011;5477;48.806;9.154;2024-02-21T04:12:18;6.43;;;2.90;;
10847;SDS011;5477;48.806;9.154;2024-02-21T04:14:47;5.90;;;2.93;;
10847;SDS011;5477;48.806;9.154;2024-02-21T04:17:15;5.40;;;2.63;;
10847;SDS011;5477;48.806;9.154;2024-02-21T04:19:43;7.90;;;2.70;;
10847;SDS011;5477;48.806;9.154;2024-02-21T04:22:11;7.83;;;2.80;;
10847;SDS011;5477;48.806;9.154;2024-02-21T04:24:40;4.87;;;2.67;;
10847;SDS011;5477;48.806;9.154;2024-02-21T04:27:08;5.57;;;2.50;;
10847;SDS011;5477;48.806;9.154;2024-02-21T04:29:36;6.97;;;2.43;;
10847;SDS011;5477;48.806;9.154;2024-02-21T04:32:05;7.03;;;2.80;;
10847;SDS011;5477;48.806;9.154;2024-02-21T04:34:34;9.17;;;2.73;;
10847;SDS011;5477;48.806;9.154;2024-02-21T04:37:03;6.57;;;2.70;;
10847;SDS011;5477;48.806;9.154;2024-02-21T04:39:31;5.67;;;2.60;;
10847;SDS011;5477;48.806;9.154;2024-02-21T04:42:00;7.03;;;2.67;;
10847;SDS011;5477;48.806;9.154;2024-02-21T04:44:29;5.83;;;2.23;;
10847;SDS011;5477;48.806;9.154;2024-02-21T04:46:57;5.80;;;2.40;;
10847;SDS011;5477;48.806;9.154;2024-02-21T04:49:25;5.47;;;2.50;;
10847;SDS011;5477;48.806;9.154;2024-02-21T04:51:54;6.00;;;2.93;;
10847;SDS011;5477;48.806;9.154;2024-02-21T04:54:22;7.40;;;2.53;;
10847;SDS011;5477;48.806;9.154;2024-02-21T04:56:50;7.67;;;2.57;;
10847;SDS011;5477;48.806;9.154;2024-02-21T04:59:20;5.17;;;2.30;;
10847;SDS011;5477;48.806;9.154;2024-02-21T05:01:48;6.80;;;2.33;;
10847;SDS011;5477;48.806;9.154;2024-02-21T05:04:16;5.20;;;2.40;;
10847;SDS011;5477;48.806;9.154;2024-02-21T05:06:44;6.33;;;2.40;;
10847;SDS011;5477;48.806;9.154;2024-02-21T05:09:13;8.13;;;2.60;;
10847;SDS011;5477;48.806;9.154;2024-02-21T05:11:41;6.43;;;2.43;;
10847;SDS011;5477;48.806;9.154;2024-02-21T05:14:10;8.70;;;2.63;;
10847;SDS011;5477;48.806;9.154;2024-02-21T05:16:39;5.20;;;2.57;;
10847;SDS011;5477;48.806;9.154;2024-02-21T05:19:07;7.03;;;2.63;;
10847;SDS011;5477;48.806;9.154;2024-02-21T05:21:36;7.43;;;2.40;;
10847;SDS011;5477;48.806;9.154;2024-02-21T05:24:04;5.83;;;2.03;;
10847;SDS011;5477;48.806;9.154;2024-02-21T05:26:32;6.77;;;2.37;;
10847;SDS011;5477;48.806;9.154;2024-02-21T05:29:00;7.50;;;2.53;;
10847;SDS011;5477;48.806;9.154;2024-02-21T05:31:29;7.53;;;2.30;;
10847;SDS011;5477;48.806;9.154;2024-02-21T05:34:24;7.57;;;2.43;;
10847;SDS011;5477;48.806;9.154;2024-02-21T05:36:53;8.23;;;2.57;;
10847;SDS011;5477;48.806;9.154;2024-02-21T05:39:21;5.50;;;1.97;;
10847;SDS011;5477;48.806;9.154;2024-02-21T05:41:50;5.70;;;2.10;;
10847;SDS011;5477;48.806;9.154;2024-02-21T05:44:18;6.73;;;2.30;;
10847;SDS011;5477;48.806;9.154;2024-02-21T05:46:50;6.27;;;2.37;;
10847;SDS011;5477;48.806;9.154;2024-02-21T05:49:18;8.23;;;2.30;;
10847;SDS011;5477;48.806;9.154;2024-02-21T05:51:46;6.20;;;2.27;;
10847;SDS011;5477;48.806;9.154;2024-02-21T05:54:14;5.93;;;2.33;;
10847;SDS011;5477;48.806;9.154;2024-02-21T05:56:44;4.43;;;2.20;;
10847;SDS011;5477;48.806;9.154;2024-02-21T05:59:13;6.37;;;2.70;;
10847;SDS011;5477;48.806;9.154;2024-02-21T06:01:41;7.60;;;2.20;;
10847;SDS011;5477;48.806;9.154;2024-02-21T06:04:11;7.53;;;2.77;;
10847;SDS011;5477;48.806;9.154;2024-02-21T06:06:39;5.93;;;2.30;;
10847;SDS011;5477;48.806;9.154;2024-02-21T06:09:07;4.50;;;2.37;;
10847;SDS011;5477;48.806;9.154;2024-02-21T06:11:36;5.47;;;2.23;;
10847;SDS011;5477;48.806;9.154;2024-02-21T06:14:04;7.03;;;2.33;;
10847;SDS011;5477;48.806;9.154;2024-02-21T06:16:32;4.97;;;1.93;;
10847;SDS011;5477;48.806;9.154;2024-02-21T06:19:00;6.43;;;2.57;;
10847;SDS011;5477;48.806;9.154;2024-02-21T06:21:33;7.80;;;2.23;;
10847;SDS011;5477;48.806;9.154;2024-02-21T06:24:01;5.70;;;2.30;;
10847;SDS011;5477;48.806;9.154;2024-02-21T06:26:29;3.27;;;2.07;;
10847;SDS011;5477;48.806;9.154;2024-02-21T06:28:57;5.57;;;2.00;;
10847;SDS011;5477;48.806;9.154;2024-02-21T06:31:27;5.13;;;2.57;;
10847;SDS011;5477;48.806;9.154;2024-02-21T06:33:55;4.70;;;2.27;;
10847;SDS011;5477;48.806;9.154;2024-02-21T06:36:23;5.03;;;2.37;;
10847;SDS011;5477;48.806;9.154;2024-02-21T06:38:52;6.67;;;2.40;;
10847;SDS011;5477;48.806;9.154;2024-02-21T06:41:21;4.30;;;2.13;;
10847;SDS011;5477;48.806;9.154;2024-02-21T06:43:49;4.60;;;2.23;;
10847;SDS011;5477;48.806;9.154;2024-02-21T06:46:24;5.67;;;2.33;;
10847;SDS011;5477;48.806;9.154;2024-02-21T06:48:52;9.47;;;2.70;;
10847;SDS011;5477;48.806;9.154;2024-02-21T06:51:23;6.73;;;2.77;;
10847;SDS011;5477;48.806;9.154;2024-02-21T06:53:52;7.87;;;2.60;;
10847;SDS011;5477;48.806;9.154;2024-02-21T06:56:20;5.97;;;2.30;;
10847;SDS011;5477;48.806;9.154;2024-02-21T06:58:53;3.57;;;1.90;;
10847;SDS011;5477;48.806;9.154;2024-02-21T07:01:21;7.50;;;2.40;;
10847;SDS011;5477;48.806;9.154;2024-02-21T07:03:50;4.97;;;2.17;;
10847;SDS011;5477;48.806;9.154;2024-02-21T07:06:18;7.50;;;2.30;;
10847;SDS011;5477;48.806;9.154;2024-02-21T07:08:46;4.17;;;2.40;;
10847;SDS011;5477;48.806;9.154;2024-02-21T07:11:15;5.40;;;2.53;;
10847;SDS011;5477;48.806;9.154;2024-02-21T07:13:44;8.80;;;2.30;;
10847;SDS011;5477;48.806;9.154;2024-02-21T07:16:12;6.70;;;2.00;;
10847;SDS011;5477;48.806;9.154;2024-02-21T07:18:40;4.20;;;2.00;;
10847;SDS011;5477;48.806;9.154;2024-02-21T07:21:08;7.07;;;2.43;;
10847;SDS011;5477;48.806;9.154;2024-02-21T07:23:36;5.77;;;2.60;;
10847;SDS011;5477;48.806;9.154;2024-02-21T07:26:04;4.60;;;2.23;;
10847;SDS011;5477;48.806;9.154;2024-02-21T07:28:33;8.17;;;2.30;;
10847;SDS011;5477;48.806;9.154;2024-02-21T07:31:01;6.60;;;1.97;;
10847;SDS011;5477;48.806;9.154;2024-02-21T07:33:30;5.93;;;2.10;;
10847;SDS011;5477;48.806;9.154;2024-02-21T07:35:58;4.80;;;2.07;;
10847;SDS011;5477;48.806;9.154;2024-02-21T07:38:26;5.57;;;1.80;;
10847;SDS011;5477;48.806;9.154;2024-02-21T07:40:54;6.53;;;2.03;;
10847;SDS011;5477;48.806;9.154;2024-02-21T07:43:23;5.87;;;2.17;;
10847;SDS011;5477;48.806;9.154;2024-02-21T07:45:54;9.23;;;2.03;;
10847;SDS011;5477;48.806;9.154;2024-02-21T07:48:22;4.40;;;2.13;;
10847;SDS011;5477;48.806;9.154;2024-02-21T07:50:52;4.50;;;1.90;;
10847;SDS011;5477;48.806;9.154;2024-02-21T07:53:20;8.00;;;2.00;;
10847;SDS011;5477;48.806;9.154;2024-02-21T07:55:48;4.60;;;1.80;;
10847;SDS011;5477;48.806;9.154;2024-02-21T07:58:16;6.90;;;1.90;;
10847;SDS011;5477;48.806;9.154;2024-02-21T08:00:44;5.17;;;1.83;;
10847;SDS011;5477;48.806;9.154;2024-02-21T08:03:14;6.83;;;2.50;;
10847;SDS011;5477;48.806;9.154;2024-02-21T08:05:44;6.23;;;2.00;;
10847;SDS011;5477;48.806;9.154;2024-02-21T08:08:12;5.57;;;1.80;;
10847;SDS011;5477;48.806;9.154;2024-02-21T08:10:44;4.00;;;1.63;;
10847;SDS011;5477;48.806;9.154;2024-02-21T08:13:12;8.47;;;1.80;;
10847;SDS011;5477;48.806;9.154;2024-02-21T08:15:41;6.43;;;1.83;;
10847;SDS011;5477;48.806;9.154;2024-02-21T08:18:09;8.10;;;2.00;;
10847;SDS011;5477;48.806;9.154;2024-02-21T08:20:38;5.73;;;2.00;;
10847;SDS011;5477;48.806;9.154;2024-02-21T08:23:06;7.50;;;2.20;;
10847;SDS011;5477;48.806;9.154;2024-02-21T08:25:34;8.17;;;2.00;;
10847;SDS011;5477;48.806;9.154;2024-02-21T08:28:03;4.03;;;1.80;;
10847;SDS011;5477;48.806;9.154;2024-02-21T08:30:32;8.07;;;1.80;;
10847;SDS011;5477;48.806;9.154;2024-02-21T08:33:00;4.77;;;2.13;;
10847;SDS011;5477;48.806;9.154;2024-02-21T08:35:30;7.47;;;1.80;;
10847;SDS011;5477;48.806;9.154;2024-02-21T08:37:59;4.10;;;1.93;;
10847;SDS011;5477;48.806;9.154;2024-02-21T08:40:27;4.63;;;1.90;;
10847;SDS011;5477;48.806;9.154;2024-02-21T08:42:55;7.77;;;2.23;;
10847;SDS011;5477;48.806;9.154;2024-02-21T08:45:23;8.23;;;1.93;;
10847;SDS011;5477;48.806;9.154;2024-02-21T08:47:51;6.80;;;1.70;;
10847;SDS011;5477;48.806;9.154;2024-02-21T08:50:19;8.63;;;1.73;;
10847;SDS011;5477;48.806;9.154;2024-02-21T08:52:54;8.00;;;2.00;;
10847;SDS011;5477;48.806;9.154;2024-02-21T08:55:24;4.97;;;1.70;;
10847;SDS011;5477;48.806;9.154;2024-02-21T08:57:52;4.83;;;1.90;;
10847;SDS011;5477;48.806;9.154;2024-02-21T09:00:21;7.07;;;2.30;;
10847;SDS011;5477;48.806;9.154;2024-02-21T09:02:53;7.27;;;2.50;;
10847;SDS011;5477;48.806;9.154;2024-02-21T09:05:22;5.07;;;2.10;;
10847;SDS011;5477;48.806;9.154;2024-02-21T09:07:51;5.50;;;1.90;;
10847;SDS011;5477;48.806;9.154;2024-02-21T09:10:20;5.80;;;2.10;;
10847;SDS011;5477;48.806;9.154;2024-02-21T09:12:49;5.53;;;1.80;;
10847;SDS011;5477;48.806;9.154;2024-02-21T09:15:17;4.47;;;1.93;;
10847;SDS011;5477;48.806;9.154;2024-02-21T09:17:46;4.87;;;1.90;;
10847;SDS011;5477;48.806;9.154;2024-02-21T09:20:14;7.23;;;2.03;;
10847;SDS011;5477;48.806;9.154;2024-02-21T09:22:43;5.77;;;2.00;;
10847;SDS011;5477;48.806;9.154;2024-02-21T09:25:11;6.20;;;1.90;;
10847;SDS011;5477;48.806;9.154;2024-02-21T09:27:39;6.47;;;1.93;;
10847;SDS011;5477;48.806;9.154;2024-02-21T09:30:09;5.63;;;1.70;;
10847;SDS011;5477;48.806;9.154;2024-02-21T09:32:38;5.00;;;1.67;;
10847;SDS011;5477;48.806;9.154;2024-02-21T09:35:06;4.03;;;1.80;;
10847;SDS011;5477;48.806;9.154;2024-02-21T09:37:35;5.00;;;1.63;;
10847;SDS011;5477;48.806;9.154;2024-02-21T09:40:04;4.77;;;2.00;;
10847;SDS011;5477;48.806;9.154;2024-02-21T09:42:36;5.67;;;1.97;;
10847;SDS011;5477;48.806;9.154;2024-02-21T09:45:07;5.17;;;1.70;;
10847;SDS011;5477;48.806;9.154;2024-02-21T09:47:43;9.27;;;2.03;;
10847;SDS011;5477;48.806;9.154;2024-02-21T09:50:21;9.20;;;2.10;;
10847;SDS011;5477;48.806;9.154;2024-02-21T09:52:52;9.60;;;2.33;;
10847;SDS011;5477;48.806;9.154;2024-02-21T09:55:22;5.87;;;1.97;;
10847;SDS011;5477;48.806;9.154;2024-02-21T09:57:51;5.63;;;2.10;;
10847;SDS011;5477;48.806;9.154;2024-02-21T10:00:22;7.70;;;2.10;;
10847;SDS011;5477;48.806;9.154;2024-02-21T10:02:50;4.03;;;2.03;;
10847;SDS011;5477;48.806;9.154;2024-02-21T10:05:18;7.50;;;2.13;;
10847;SDS011;5477;48.806;9.154;2024-02-21T10:07:47;6.50;;;1.80;;
10847;SDS011;5477;48.806;9.154;2024-02-21T10:10:16;4.97;;;1.80;;
10847;SDS011;5477;48.806;9.154;2024-02-21T10:12:49;7.70;;;2.03;;
10847;SDS011;5477;48.806;9.154;2024-02-21T10:15:19;6.90;;;1.73;;
10847;SDS011;5477;48.806;9.154;2024-02-21T10:17:58;7.33;;;2.20;;
10847;SDS011;5477;48.806;9.154;2024-02-21T10:20:27;6.97;;;2.00;;
10847;SDS011;5477;48.806;9.154;2024-02-21T10:23:01;5.97;;;1.93;;
10847;SDS011;5477;48.806;9.154;2024-02-21T10:25:34;4.73;;;1.77;;
10847;SDS011;5477;48.806;9.154;2024-02-21T10:28:04;4.63;;;1.80;;
10847;SDS011;5477;48.806;9.154;2024-02-21T10:30:34;4.97;;;1.50;;
10847;SDS011;5477;48.806;9.154;2024-02-21T10:33:02;4.63;;;1.80;;
10847;SDS011;5477;48.806;9.154;2024-02-21T10:35:31;4.90;;;1.83;;
10847;SDS011;5477;48.806;9.154;2024-02-21T10:38:00;4.20;;;1.80;;
10847;SDS011;5477;48.806;9.154;2024-02-21T10:40:30;5.17;;;1.80;;
10847;SDS011;5477;48.806;9.154;2024-02-21T10:42:59;4.43;;;1.67;;
10847;SDS011;5477;48.806;9.154;2024-02-21T10:45:29;5.67;;;2.03;;
10847;SDS011;5477;48.806;9.154;2024-02-21T10:48:05;4.43;;;1.57;;
10847;SDS011;5477;48.806;9.154;2024-02-21T10:50:41;4.63;;;1.50;;
10847;SDS011;5477;48.806;9.154;2024-02-21T10:53:24;5.93;;;1.80;;
10847;SDS011;5477;48.806;9.154;2024-02-21T10:56:06;5.13;;;2.00;;
10847;SDS011;5477;48.806;9.154;2024-02-21T10:58:43;4.67;;;1.90;;
10847;SDS011;5477;48.806;9.154;2024-02-21T11:01:13;4.03;;;1.50;;
10847;SDS011;5477;48.806;9.154;2024-02-21T11:03:44;3.73;;;1.70;;
10847;SDS011;5477;48.806;9.154;2024-02-21T11:06:14;4.90;;;1.80;;
10847;SDS011;5477;48.806;9.154;2024-02-21T11:08:43;7.33;;;2.40;;
10847;SDS011;5477;48.806;9.154;2024-02-21T11:11:12;6.73;;;1.90;;
10847;SDS011;5477;48.806;9.154;2024-02-21T11:14:06;3.60;;;1.50;;
10847;SDS011;5477;48.806;9.154;2024-02-21T11:16:35;3.63;;;1.47;;
10847;SDS011;5477;48.806;9.154;2024-02-21T11:19:07;5.03;;;1.70;;
10847;SDS011;5477;48.806;9.154;2024-02-21T11:21:37;3.07;;;1.60;;
10847;SDS011;5477;48.806;9.154;2024-02-21T11:24:07;3.40;;;1.43;;
10847;SDS011;5477;48.806;9.154;2024-02-21T11:26:36;4.67;;;1.40;;
10847;SDS011;5477;48.806;9.154;2024-02-21T11:29:05;2.93;;;1.50;;
10847;SDS011;5477;48.806;9.154;2024-02-21T11:31:39;4.33;;;1.37;;
10847;SDS011;5477;48.806;9.154;2024-02-21T11:34:10;3.73;;;1.57;;
10847;SDS011;5477;48.806;9.154;2024-02-21T11:36:48;5.67;;;1.40;;
10847;SDS011;5477;48.806;9.154;2024-02-21T11:39:20;5.30;;;1.60;;
10847;SDS011;5477;48.806;9.154;2024-02-21T11:42:02;6.00;;;1.60;;
10847;SDS011;5477;48.806;9.154;2024-02-21T11:44:31;4.00;;;1.40;;
10847;SDS011;5477;48.806;9.154;2024-02-21T11:46:59;2.87;;;1.40;;
10847;SDS011;5477;48.806;9.154;2024-02-21T11:49:29;4.37;;;1.30;;
10847;SDS011;5477;48.806;9.154;2024-02-21T11:51:58;2.23;;;1.23;;
10847;SDS011;5477;48.806;9.154;2024-02-21T11:54:27;4.80;;;1.50;;
10847;SDS011;5477;48.806;9.154;2024-02-21T11:56:55;2.83;;;1.30;;
10847;SDS011;5477;48.806;9.154;2024-02-21T11:59:24;6.93;;;1.63;;
10847;SDS011;5477;48.806;9.154;2024-02-21T12:01:53;3.77;;;1.30;;
10847;SDS011;5477;48.806;9.154;2024-02-21T12:04:21;5.70;;;1.50;;
10847;SDS011;5477;48.806;9.154;2024-02-21T12:06:51;3.83;;;1.47;;
10847;SDS011;5477;48.806;9.154;2024-02-21T12:09:22;2.50;;;1.07;;
10847;SDS011;5477;48.806;9.154;2024-02-21T12:11:57;4.63;;;1.43;;
10847;SDS011;5477;48.806;9.154;2024-02-21T12:14:27;3.03;;;1.50;;
10847;SDS011;5477;48.806;9.154;2024-02-21T12:16:57;2.70;;;1.50;;
10847;SDS011;5477;48.806;9.154;2024-02-21T12:19:26;7.10;;;1.47;;
10847;SDS011;5477;48.806;9.154;2024-02-21T12:21:58;2.70;;;1.40;;
10847;SDS011;5477;48.806;9.154;2024-02-21T12:24:28;5.23;;;1.57;;
10847;SDS011;5477;48.806;9.154;2024-02-21T12:26:57;4.53;;;1.60;;
10847;SDS011;5477;48.806;9.154;2024-02-21T12:29:26;5.43;;;1.70;;
10847;SDS011;5477;48.806;9.154;2024-02-21T12:31:55;4.53;;;1.40;;
10847;SDS011;5477;48.806;9.154;2024-02-21T12:34:23;3.20;;;1.30;;
10847;SDS011;5477;48.806;9.154;2024-02-21T12:37:10;4.10;;;1.30;;
10847;SDS011;5477;48.806;9.154;2024-02-21T12:39:40;4.83;;;1.43;;
10847;SDS011;5477;48.806;9.154;2024-02-21T12:42:08;3.03;;;1.40;;
10847;SDS011;5477;48.806;9.154;2024-02-21T12:44:37;3.30;;;1.47;;
10847;SDS011;5477;48.806;9.154;2024-02-21T12:47:06;4.97;;;1.37;;
10847;SDS011;5477;48.806;9.154;2024-02-21T12:49:34;2.57;;;1.20;;
10847;SDS011;5477;48.806;9.154;2024-02-21T12:52:04;2.83;;;1.40;;
10847;SDS011;5477;48.806;9.154;2024-02-21T12:54:34;2.77;;;1.07;;
10847;SDS011;5477;48.806;9.154;2024-02-21T12:57:02;5.80;;;1.30;;
10847;SDS011;5477;48.806;9.154;2024-02-21T12:59:31;2.47;;;1.30;;
10847;SDS011;5477;48.806;9.154;2024-02-21T13:01:59;4.67;;;1.10;;
10847;SDS011;5477;48.806;9.154;2024-02-21T13:04:27;3.93;;;1.23;;
10847;SDS011;5477;48.806;9.154;2024-02-21T13:06:56;3.30;;;1.10;;
10847;SDS011;5477;48.806;9.154;2024-02-21T13:09:24;3.17;;;1.30;;
10847;SDS011;5477;48.806;9.154;2024-02-21T13:11:53;4.53;;;1.47;;
10847;SDS011;5477;48.806;9.154;2024-02-21T13:14:22;3.17;;;1.40;;
10847;SDS011;5477;48.806;9.154;2024-02-21T13:16:50;2.07;;;1.30;;
10847;SDS011;5477;48.806;9.154;2024-02-21T13:19:19;3.37;;;1.13;;
10847;SDS011;5477;48.806;9.154;2024-02-21T13:21:47;2.43;;;1.13;;
10847;SDS011;5477;48.806;9.154;2024-02-21T13:24:15;2.13;;;1.00;;
10847;SDS011;5477;48.806;9.154;2024-02-21T13:26:43;3.30;;;1.30;;
10847;SDS011;5477;48.806;9.154;2024-02-21T13:29:13;3.17;;;1.40;;
10847;SDS011;5477;48.806;9.154;2024-02-21T13:31:41;3.03;;;1.40;;
10847;SDS011;5477;48.806;9.154;2024-02-21T13:34:09;3.83;;;1.20;;
10847;SDS011;5477;48.806;9.154;2024-02-21T13:36:38;3.67;;;1.20;;
10847;SDS011;5477;48.806;9.154;2024-02-21T13:39:06;2.83;;;1.30;;
10847;SDS011;5477;48.806;9.154;2024-02-21T13:41:39;1.73;;;1.20;;
10847;SDS011;5477;48.806;9.154;2024-02-21T13:44:07;2.37;;;1.40;;
10847;SDS011;5477;48.806;9.154;2024-02-21T13:46:37;3.23;;;1.20;;
10847;SDS011;5477;48.806;9.154;2024-02-21T13:49:05;2.50;;;1.10;;
10847;SDS011;5477;48.806;9.154;2024-02-21T13:51:34;1.73;;;0.90;;
10847;SDS011;5477;48.806;9.154;2024-02-21T13:54:03;2.63;;;1.20;;
10847;SDS011;5477;48.806;9.154;2024-02-21T13:56:31;1.80;;;0.90;;
10847;SDS011;5477;48.806;9.154;2024-02-21T13:59:01;3.33;;;1.20;;
10847;SDS011;5477;48.806;9.154;2024-02-21T14:01:29;2.73;;;1.20;;
10847;SDS011;5477;48.806;9.154;2024-02-21T14:04:00;2.30;;;1.10;;
10847;SDS011;5477;48.806;9.154;2024-02-21T14:06:28;3.00;;;1.03;;
10847;SDS011;5477;48.806;9.154;2024-02-21T14:08:56;3.00;;;1.20;;
10847;SDS011;5477;48.806;9.154;2024-02-21T14:11:24;5.10;;;1.23;;
10847;SDS011;5477;48.806;9.154;2024-02-21T14:13:53;2.33;;;1.20;;
10847;SDS011;5477;48.806;9.154;2024-02-21T14:16:24;2.30;;;1.20;;
10847;SDS011;5477;48.806;9.154;2024-02-21T14:18:52;3.00;;;1.07;;
10847;SDS011;5477;48.806;9.154;2024-02-21T14:21:22;2.07;;;0.93;;
10847;SDS011;5477;48.806;9.154;2024-02-21T14:23:50;2.03;;;1.10;;
10847;SDS011;5477;48.806;9.154;2024-02-21T14:26:19;3.73;;;1.17;;
10847;SDS011;5477;48.806;9.154;2024-02-21T14:28:48;1.97;;;1.00;;
10847;SDS011;5477;48.806;9.154;2024-02-21T14:31:16;4.03;;;1.10;;
10847;SDS011;5477;48.806;9.154;2024-02-21T14:33:44;2.10;;;1.00;;
10847;SDS011;5477;48.806;9.154;2024-02-21T14:36:13;2.40;;;1.10;;
10847;SDS011;5477;48.806;9.154;2024-02-21T14:38:44;2.23;;;0.97;;
10847;SDS011;5477;48.806;9.154;2024-02-21T14:41:12;2.57;;;1.10;;
10847;SDS011;5477;48.806;9.154;2024-02-21T14:43:40;2.90;;;1.13;;
10847;SDS011;5477;48.806;9.154;2024-02-21T14:46:10;2.20;;;1.00;;
10847;SDS011;5477;48.806;9.154;2024-02-21T14:48:39;1.10;;;1.00;;
10847;SDS011;5477;48.806;9.154;2024-02-21T14:51:07;1.77;;;1.20;;
10847;SDS011;5477;48.806;9.154;2024-02-21T14:53:35;2.73;;;1.07;;
10847;SDS011;5477;48.806;9.154;2024-02-21T14:56:05;1.43;;;1.13;;
10847;SDS011;5477;48.806;9.154;2024-02-21T14:58:41;3.17;;;1.10;;
10847;SDS011;5477;48.806;9.154;2024-02-21T15:01:09;1.87;;;1.07;;
10847;SDS011;5477;48.806;9.154;2024-02-21T15:03:39;1.70;;;0.87;;
10847;SDS011;5477;48.806;9.154;2024-02-21T15:06:09;4.63;;;1.10;;
10847;SDS011;5477;48.806;9.154;2024-02-21T15:08:38;3.23;;;0.97;;
10847;SDS011;5477;48.806;9.154;2024-02-21T15:11:07;2.20;;;1.07;;
10847;SDS011;5477;48.806;9.154;2024-02-21T15:13:36;2.20;;;1.20;;